N226DA KSYR-KIAG
Flight info
| Callsign | N226DA |
|---|---|
| Flight time | 1h 31m |
| Altitude | 6000 |
| Route | SYR T608 ROC |
| Aircraft | DA40/L-VGD/C |
Departure
| Time | 2026-04-24 00:26 |
|---|---|
| Airport | Syracuse Hancock International Airport (KSYR) |
Arrival
| Time | 2026-04-24 01:57 |
|---|---|
| Airport | Niagara Falls International Airport (KIAG) |
| Time | Latitude | Longitude | Altitude | Speed | Heading |
|---|---|---|---|---|---|
| 2026-04-24 00:02 | 43.11115 | -76.11207 | 422 ft | 0 kts | 265° |
| 2026-04-24 00:19 | 43.11115 | -76.11209 | 422 ft | 2 kts | 269° |
| 2026-04-24 00:19 | 43.11127 | -76.11208 | 416 ft | 0 kts | 68° |
| 2026-04-24 00:19 | 43.11132 | -76.11185 | 422 ft | 5 kts | 83° |
| 2026-04-24 00:20 | 43.11113 | -76.11146 | 419 ft | 5 kts | 176° |
| 2026-04-24 00:20 | 43.11067 | -76.11145 | 423 ft | 9 kts | 181° |
| 2026-04-24 00:20 | 43.11001 | -76.11116 | 419 ft | 13 kts | 120° |
| 2026-04-24 00:20 | 43.10998 | -76.10968 | 423 ft | 18 kts | 91° |
| 2026-04-24 00:21 | 43.11005 | -76.10776 | 421 ft | 21 kts | 89° |
| 2026-04-24 00:21 | 43.11012 | -76.10565 | 419 ft | 23 kts | 86° |
| 2026-04-24 00:21 | 43.11020 | -76.10327 | 412 ft | 27 kts | 87° |
| 2026-04-24 00:21 | 43.11028 | -76.10075 | 412 ft | 27 kts | 89° |
| 2026-04-24 00:22 | 43.11037 | -76.09817 | 412 ft | 27 kts | 86° |
| 2026-04-24 00:22 | 43.11044 | -76.09572 | 417 ft | 25 kts | 88° |
| 2026-04-24 00:22 | 43.11051 | -76.09337 | 418 ft | 25 kts | 91° |
| 2026-04-24 00:22 | 43.11025 | -76.09270 | 419 ft | 0 kts | 165° |
| 2026-04-24 00:23 | 43.11024 | -76.09270 | 419 ft | 0 kts | 165° |
| 2026-04-24 00:25 | 43.11020 | -76.09269 | 419 ft | 4 kts | 173° |
| 2026-04-24 00:25 | 43.10946 | -76.09278 | 420 ft | 19 kts | 228° |
| 2026-04-24 00:25 | 43.10923 | -76.09559 | 418 ft | 50 kts | 267° |
| 2026-04-24 00:25 | 43.10892 | -76.10159 | 541 ft | 67 kts | 268° |
| 2026-04-24 00:26 | 43.10870 | -76.10781 | 759 ft | 66 kts | 268° |
| 2026-04-24 00:26 | 43.10847 | -76.11407 | 959 ft | 66 kts | 271° |
| 2026-04-24 00:26 | 43.10838 | -76.12078 | 1109 ft | 75 kts | 273° |
| 2026-04-24 00:26 | 43.10845 | -76.12805 | 1331 ft | 79 kts | 270° |
| 2026-04-24 00:27 | 43.10838 | -76.13542 | 1626 ft | 77 kts | 276° |
| 2026-04-24 00:27 | 43.10852 | -76.14274 | 1898 ft | 78 kts | 275° |
| 2026-04-24 00:27 | 43.10856 | -76.14973 | 2177 ft | 71 kts | 277° |
| 2026-04-24 00:27 | 43.10862 | -76.15661 | 2372 ft | 72 kts | 277° |
| 2026-04-24 00:28 | 43.10870 | -76.16348 | 2573 ft | 72 kts | 278° |
| 2026-04-24 00:28 | 43.10878 | -76.17038 | 2778 ft | 72 kts | 279° |
| 2026-04-24 00:28 | 43.10887 | -76.17726 | 2983 ft | 72 kts | 280° |
| 2026-04-24 00:28 | 43.10896 | -76.18414 | 3180 ft | 72 kts | 281° |
| 2026-04-24 00:29 | 43.10904 | -76.19095 | 3368 ft | 73 kts | 281° |
| 2026-04-24 00:29 | 43.10912 | -76.19784 | 3556 ft | 73 kts | 281° |
| 2026-04-24 00:29 | 43.10921 | -76.20474 | 3739 ft | 72 kts | 281° |
| 2026-04-24 00:29 | 43.10929 | -76.21164 | 3919 ft | 72 kts | 281° |
| 2026-04-24 00:30 | 43.10938 | -76.21852 | 4102 ft | 72 kts | 282° |
| 2026-04-24 00:30 | 43.10946 | -76.22539 | 4284 ft | 72 kts | 282° |
| 2026-04-24 00:30 | 43.10955 | -76.23225 | 4475 ft | 72 kts | 283° |
| 2026-04-24 00:30 | 43.10963 | -76.23905 | 4661 ft | 72 kts | 283° |
| 2026-04-24 00:31 | 43.10971 | -76.24586 | 4845 ft | 71 kts | 283° |
| 2026-04-24 00:31 | 43.10979 | -76.25261 | 5019 ft | 71 kts | 284° |
| 2026-04-24 00:31 | 43.10987 | -76.25937 | 5188 ft | 71 kts | 284° |
| 2026-04-24 00:31 | 43.10995 | -76.26598 | 5357 ft | 70 kts | 284° |
| 2026-04-24 00:32 | 43.11003 | -76.27257 | 5527 ft | 69 kts | 284° |
| 2026-04-24 00:32 | 43.11011 | -76.27908 | 5694 ft | 69 kts | 285° |
| 2026-04-24 00:32 | 43.11018 | -76.28559 | 5855 ft | 68 kts | 285° |
| 2026-04-24 00:32 | 43.11026 | -76.29203 | 5997 ft | 69 kts | 285° |
| 2026-04-24 00:33 | 43.11039 | -76.29924 | 6006 ft | 82 kts | 283° |
| 2026-04-24 00:33 | 43.11051 | -76.30751 | 6005 ft | 92 kts | 282° |
| 2026-04-24 00:33 | 43.11064 | -76.31668 | 6007 ft | 101 kts | 281° |
| 2026-04-24 00:33 | 43.11077 | -76.32647 | 6007 ft | 107 kts | 281° |
| 2026-04-24 00:34 | 43.11089 | -76.33688 | 6005 ft | 112 kts | 281° |
| 2026-04-24 00:34 | 43.11101 | -76.34764 | 6004 ft | 114 kts | 280° |
| 2026-04-24 00:34 | 43.11112 | -76.35858 | 6004 ft | 116 kts | 280° |
| 2026-04-24 00:34 | 43.11124 | -76.36969 | 6009 ft | 118 kts | 280° |
| 2026-04-24 00:35 | 43.11136 | -76.38097 | 6008 ft | 119 kts | 280° |
| 2026-04-24 00:35 | 43.11148 | -76.39231 | 6006 ft | 119 kts | 280° |
| 2026-04-24 00:35 | 43.11159 | -76.40358 | 6006 ft | 118 kts | 280° |
| 2026-04-24 00:35 | 43.11170 | -76.41476 | 6007 ft | 117 kts | 281° |
| 2026-04-24 00:36 | 43.11184 | -76.42585 | 6008 ft | 117 kts | 281° |
| 2026-04-24 00:36 | 43.11194 | -76.43694 | 6008 ft | 116 kts | 280° |
| 2026-04-24 00:36 | 43.11204 | -76.44798 | 6008 ft | 116 kts | 281° |
| 2026-04-24 00:36 | 43.11215 | -76.45881 | 6007 ft | 115 kts | 281° |
| 2026-04-24 00:37 | 43.11226 | -76.46980 | 6007 ft | 116 kts | 281° |
| 2026-04-24 00:37 | 43.11238 | -76.48084 | 6008 ft | 116 kts | 281° |
| 2026-04-24 00:37 | 43.11249 | -76.49194 | 6008 ft | 117 kts | 281° |
| 2026-04-24 00:37 | 43.11260 | -76.50310 | 6008 ft | 118 kts | 281° |
| 2026-04-24 00:38 | 43.11271 | -76.51433 | 5997 ft | 118 kts | 279° |
| 2026-04-24 00:38 | 43.11282 | -76.52563 | 5996 ft | 119 kts | 278° |
| 2026-04-24 00:38 | 43.11292 | -76.53700 | 5996 ft | 120 kts | 278° |
| 2026-04-24 00:38 | 43.11303 | -76.54839 | 5995 ft | 120 kts | 279° |
| 2026-04-24 00:39 | 43.11313 | -76.55967 | 5995 ft | 120 kts | 279° |
| 2026-04-24 00:39 | 43.11323 | -76.57108 | 5997 ft | 120 kts | 279° |
| 2026-04-24 00:39 | 43.11334 | -76.58252 | 5998 ft | 121 kts | 279° |
| 2026-04-24 00:39 | 43.11344 | -76.59399 | 5996 ft | 120 kts | 279° |
| 2026-04-24 00:40 | 43.11354 | -76.60541 | 5995 ft | 120 kts | 278° |
| 2026-04-24 00:40 | 43.11364 | -76.61683 | 5997 ft | 120 kts | 278° |
| 2026-04-24 00:40 | 43.11374 | -76.62827 | 5997 ft | 120 kts | 278° |
| 2026-04-24 00:40 | 43.11384 | -76.63972 | 5997 ft | 121 kts | 278° |
| 2026-04-24 00:41 | 43.11394 | -76.65121 | 6000 ft | 121 kts | 278° |
| 2026-04-24 00:41 | 43.11404 | -76.66272 | 6000 ft | 121 kts | 279° |
| 2026-04-24 00:41 | 43.11413 | -76.67424 | 6001 ft | 121 kts | 279° |
| 2026-04-24 00:41 | 43.11422 | -76.68560 | 5999 ft | 121 kts | 279° |
| 2026-04-24 00:42 | 43.11431 | -76.69721 | 5999 ft | 120 kts | 279° |
| 2026-04-24 00:42 | 43.11440 | -76.70849 | 5999 ft | 120 kts | 279° |
| 2026-04-24 00:42 | 43.11449 | -76.71996 | 6000 ft | 121 kts | 279° |
| 2026-04-24 00:42 | 43.11458 | -76.73144 | 6000 ft | 120 kts | 279° |
| 2026-04-24 00:43 | 43.11467 | -76.74290 | 6000 ft | 121 kts | 279° |
| 2026-04-24 00:43 | 43.11477 | -76.75437 | 6002 ft | 121 kts | 279° |
| 2026-04-24 00:43 | 43.11484 | -76.76585 | 6002 ft | 121 kts | 278° |
| 2026-04-24 00:43 | 43.11492 | -76.77735 | 6000 ft | 121 kts | 279° |
| 2026-04-24 00:44 | 43.11500 | -76.78877 | 6000 ft | 120 kts | 279° |
| 2026-04-24 00:44 | 43.11509 | -76.80015 | 6001 ft | 119 kts | 279° |
| 2026-04-24 00:44 | 43.11517 | -76.81150 | 6001 ft | 120 kts | 279° |
| 2026-04-24 00:44 | 43.11524 | -76.82273 | 5999 ft | 119 kts | 279° |
| 2026-04-24 00:45 | 43.11532 | -76.83406 | 6003 ft | 120 kts | 279° |
| 2026-04-24 00:45 | 43.11540 | -76.84554 | 6002 ft | 121 kts | 278° |
| 2026-04-24 00:45 | 43.11548 | -76.85704 | 6001 ft | 121 kts | 278° |
| 2026-04-24 00:45 | 43.11555 | -76.86858 | 5996 ft | 121 kts | 277° |
| 2026-04-24 00:46 | 43.11561 | -76.88011 | 6001 ft | 121 kts | 278° |
| 2026-04-24 00:46 | 43.11569 | -76.89166 | 6000 ft | 121 kts | 278° |
| 2026-04-24 00:46 | 43.11577 | -76.90318 | 6000 ft | 121 kts | 278° |
| 2026-04-24 00:46 | 43.11584 | -76.91470 | 6000 ft | 121 kts | 278° |
| 2026-04-24 00:47 | 43.11591 | -76.92619 | 6000 ft | 121 kts | 277° |
| 2026-04-24 00:47 | 43.11598 | -76.93767 | 6000 ft | 121 kts | 277° |
| 2026-04-24 00:47 | 43.11605 | -76.94899 | 6003 ft | 120 kts | 277° |
| 2026-04-24 00:47 | 43.11612 | -76.96047 | 6003 ft | 121 kts | 277° |
| 2026-04-24 00:48 | 43.11618 | -76.97197 | 6003 ft | 121 kts | 277° |
| 2026-04-24 00:48 | 43.11624 | -76.98351 | 6002 ft | 121 kts | 277° |
| 2026-04-24 00:48 | 43.11630 | -76.99506 | 6002 ft | 121 kts | 277° |
| 2026-04-24 00:48 | 43.11637 | -77.00660 | 6005 ft | 121 kts | 277° |
| 2026-04-24 00:49 | 43.11643 | -77.01816 | 6000 ft | 121 kts | 277° |
| 2026-04-24 00:49 | 43.11648 | -77.02961 | 6005 ft | 119 kts | 277° |
| 2026-04-24 00:49 | 43.11654 | -77.04099 | 6006 ft | 120 kts | 277° |
| 2026-04-24 00:49 | 43.11660 | -77.05243 | 6005 ft | 120 kts | 277° |
| 2026-04-24 00:50 | 43.11666 | -77.06392 | 6006 ft | 121 kts | 277° |
| 2026-04-24 00:50 | 43.11671 | -77.07531 | 6005 ft | 121 kts | 277° |
| 2026-04-24 00:50 | 43.11677 | -77.08688 | 6006 ft | 122 kts | 277° |
| 2026-04-24 00:50 | 43.11682 | -77.09843 | 6006 ft | 121 kts | 277° |
| 2026-04-24 00:51 | 43.11687 | -77.10998 | 6004 ft | 121 kts | 277° |
| 2026-04-24 00:51 | 43.11692 | -77.12148 | 6005 ft | 121 kts | 277° |
| 2026-04-24 00:51 | 43.11697 | -77.13299 | 6005 ft | 121 kts | 277° |
| 2026-04-24 00:51 | 43.11702 | -77.14448 | 6007 ft | 121 kts | 277° |
| 2026-04-24 00:52 | 43.11706 | -77.15601 | 6005 ft | 121 kts | 277° |
| 2026-04-24 00:52 | 43.11711 | -77.16755 | 6006 ft | 121 kts | 277° |
| 2026-04-24 00:52 | 43.11715 | -77.17896 | 6005 ft | 121 kts | 277° |
| 2026-04-24 00:52 | 43.11720 | -77.19054 | 6007 ft | 122 kts | 277° |
| 2026-04-24 00:53 | 43.11724 | -77.20217 | 6008 ft | 123 kts | 277° |
| 2026-04-24 00:53 | 43.11728 | -77.21386 | 6007 ft | 123 kts | 277° |
| 2026-04-24 00:53 | 43.11732 | -77.22554 | 6007 ft | 123 kts | 277° |
| 2026-04-24 00:53 | 43.11733 | -77.23722 | 6004 ft | 122 kts | 275° |
| 2026-04-24 00:54 | 43.11738 | -77.24889 | 6005 ft | 123 kts | 276° |
| 2026-04-24 00:54 | 43.11744 | -77.26062 | 5999 ft | 123 kts | 275° |
| 2026-04-24 00:54 | 43.11748 | -77.27228 | 6005 ft | 123 kts | 275° |
| 2026-04-24 00:54 | 43.11751 | -77.28398 | 6003 ft | 123 kts | 275° |
| 2026-04-24 00:55 | 43.11754 | -77.29566 | 6005 ft | 123 kts | 275° |
| 2026-04-24 00:55 | 43.11756 | -77.30719 | 6005 ft | 123 kts | 275° |
| 2026-04-24 00:55 | 43.11760 | -77.31889 | 6005 ft | 123 kts | 275° |
| 2026-04-24 00:55 | 43.11764 | -77.33061 | 6004 ft | 123 kts | 275° |
| 2026-04-24 00:56 | 43.11766 | -77.34231 | 6005 ft | 123 kts | 275° |
| 2026-04-24 00:56 | 43.11768 | -77.35401 | 6006 ft | 123 kts | 275° |
| 2026-04-24 00:56 | 43.11770 | -77.36573 | 6007 ft | 123 kts | 275° |
| 2026-04-24 00:56 | 43.11773 | -77.37749 | 6006 ft | 124 kts | 275° |
| 2026-04-24 00:57 | 43.11775 | -77.38927 | 5998 ft | 124 kts | 275° |
| 2026-04-24 00:57 | 43.11777 | -77.40102 | 5999 ft | 124 kts | 275° |
| 2026-04-24 00:57 | 43.11782 | -77.42431 | 5998 ft | 123 kts | 275° |
| 2026-04-24 00:58 | 43.11784 | -77.43599 | 5997 ft | 123 kts | 275° |
| 2026-04-24 00:58 | 43.11786 | -77.44766 | 5997 ft | 123 kts | 275° |
| 2026-04-24 00:58 | 43.11787 | -77.45933 | 5996 ft | 122 kts | 275° |
| 2026-04-24 00:58 | 43.11789 | -77.47098 | 5996 ft | 123 kts | 275° |
| 2026-04-24 00:59 | 43.11790 | -77.48267 | 5993 ft | 123 kts | 275° |
| 2026-04-24 00:59 | 43.11791 | -77.49433 | 5994 ft | 123 kts | 274° |
| 2026-04-24 00:59 | 43.11792 | -77.50601 | 5993 ft | 123 kts | 274° |
| 2026-04-24 00:59 | 43.11793 | -77.51768 | 5993 ft | 123 kts | 274° |
| 2026-04-24 01:00 | 43.11794 | -77.52935 | 5989 ft | 123 kts | 275° |
| 2026-04-24 01:00 | 43.11794 | -77.54103 | 5988 ft | 123 kts | 274° |
| 2026-04-24 01:00 | 43.11795 | -77.55268 | 5988 ft | 122 kts | 275° |
| 2026-04-24 01:00 | 43.11796 | -77.56431 | 5987 ft | 122 kts | 275° |
| 2026-04-24 01:01 | 43.11796 | -77.57577 | 5992 ft | 122 kts | 274° |
| 2026-04-24 01:01 | 43.11796 | -77.58739 | 5992 ft | 122 kts | 274° |
| 2026-04-24 01:01 | 43.11796 | -77.59903 | 5991 ft | 122 kts | 274° |
| 2026-04-24 01:01 | 43.11796 | -77.61068 | 5991 ft | 123 kts | 274° |
| 2026-04-24 01:02 | 43.11797 | -77.62238 | 5991 ft | 123 kts | 274° |
| 2026-04-24 01:02 | 43.11796 | -77.63411 | 5990 ft | 123 kts | 274° |
| 2026-04-24 01:02 | 43.11796 | -77.64584 | 5990 ft | 123 kts | 274° |
| 2026-04-24 01:02 | 43.11796 | -77.65752 | 5990 ft | 123 kts | 274° |
| 2026-04-24 01:03 | 43.11795 | -77.66920 | 5991 ft | 123 kts | 274° |
| 2026-04-24 01:03 | 43.11794 | -77.68089 | 5991 ft | 123 kts | 274° |
| 2026-04-24 01:03 | 43.11790 | -77.69261 | 5990 ft | 123 kts | 274° |
| 2026-04-24 01:03 | 43.11787 | -77.70416 | 5990 ft | 123 kts | 274° |
| 2026-04-24 01:04 | 43.11783 | -77.71585 | 5990 ft | 123 kts | 274° |
| 2026-04-24 01:04 | 43.11779 | -77.72755 | 5991 ft | 123 kts | 274° |
| 2026-04-24 01:04 | 43.11776 | -77.73925 | 5991 ft | 123 kts | 274° |
| 2026-04-24 01:04 | 43.11772 | -77.75097 | 5991 ft | 123 kts | 274° |
| 2026-04-24 01:05 | 43.11769 | -77.76271 | 5990 ft | 123 kts | 274° |
| 2026-04-24 01:05 | 43.11765 | -77.77441 | 5991 ft | 123 kts | 274° |
| 2026-04-24 01:05 | 43.11760 | -77.78608 | 5991 ft | 123 kts | 274° |
| 2026-04-24 01:05 | 43.11756 | -77.79772 | 6001 ft | 122 kts | 274° |
| 2026-04-24 01:06 | 43.11752 | -77.80934 | 6004 ft | 122 kts | 274° |
| 2026-04-24 01:06 | 43.11748 | -77.82100 | 6015 ft | 123 kts | 273° |
| 2026-04-24 01:06 | 43.11743 | -77.83267 | 6015 ft | 123 kts | 273° |
| 2026-04-24 01:06 | 43.11738 | -77.84418 | 6015 ft | 123 kts | 274° |
| 2026-04-24 01:07 | 43.11733 | -77.85586 | 6012 ft | 123 kts | 274° |
| 2026-04-24 01:07 | 43.11728 | -77.86760 | 6012 ft | 124 kts | 274° |
| 2026-04-24 01:07 | 43.11723 | -77.87934 | 6012 ft | 123 kts | 274° |
| 2026-04-24 01:07 | 43.11718 | -77.89106 | 6012 ft | 123 kts | 273° |
| 2026-04-24 01:08 | 43.11713 | -77.90278 | 6011 ft | 123 kts | 274° |
| 2026-04-24 01:08 | 43.11707 | -77.91451 | 6011 ft | 123 kts | 274° |
| 2026-04-24 01:08 | 43.11702 | -77.92621 | 6011 ft | 123 kts | 274° |
| 2026-04-24 01:08 | 43.11696 | -77.93776 | 6010 ft | 123 kts | 274° |
| 2026-04-24 01:09 | 43.11690 | -77.94946 | 6010 ft | 123 kts | 273° |
| 2026-04-24 01:09 | 43.11684 | -77.96113 | 6007 ft | 122 kts | 273° |
| 2026-04-24 01:09 | 43.11678 | -77.97279 | 6009 ft | 123 kts | 273° |
| 2026-04-24 01:09 | 43.11672 | -77.98448 | 6009 ft | 123 kts | 273° |
| 2026-04-24 01:10 | 43.11666 | -77.99615 | 6011 ft | 123 kts | 273° |
| 2026-04-24 01:10 | 43.11659 | -78.00780 | 6011 ft | 122 kts | 273° |
| 2026-04-24 01:10 | 43.11653 | -78.01946 | 6011 ft | 123 kts | 273° |
| 2026-04-24 01:10 | 43.11646 | -78.03111 | 6011 ft | 123 kts | 273° |
| 2026-04-24 01:11 | 43.11639 | -78.04278 | 6008 ft | 123 kts | 273° |
| 2026-04-24 01:11 | 43.11632 | -78.05445 | 6008 ft | 123 kts | 273° |
| 2026-04-24 01:11 | 43.11625 | -78.06596 | 6008 ft | 123 kts | 273° |
| 2026-04-24 01:11 | 43.11618 | -78.07766 | 6008 ft | 123 kts | 273° |
| 2026-04-24 01:12 | 43.11610 | -78.08938 | 6008 ft | 123 kts | 273° |
| 2026-04-24 01:12 | 43.11603 | -78.10109 | 6008 ft | 123 kts | 273° |
| 2026-04-24 01:12 | 43.11595 | -78.11283 | 6008 ft | 123 kts | 273° |
| 2026-04-24 01:12 | 43.11588 | -78.12457 | 6008 ft | 123 kts | 273° |
| 2026-04-24 01:13 | 43.11580 | -78.13630 | 6008 ft | 124 kts | 273° |
| 2026-04-24 01:13 | 43.11572 | -78.14806 | 6008 ft | 124 kts | 273° |
| 2026-04-24 01:13 | 43.11564 | -78.15984 | 6007 ft | 124 kts | 273° |
| 2026-04-24 01:13 | 43.11556 | -78.17159 | 6009 ft | 124 kts | 273° |
| 2026-04-24 01:14 | 43.11548 | -78.18338 | 6010 ft | 124 kts | 273° |
| 2026-04-24 01:14 | 43.11539 | -78.19498 | 6012 ft | 124 kts | 273° |
| 2026-04-24 01:14 | 43.11531 | -78.20675 | 6012 ft | 124 kts | 273° |
| 2026-04-24 01:14 | 43.11522 | -78.21854 | 6011 ft | 124 kts | 273° |
| 2026-04-24 01:15 | 43.11514 | -78.23032 | 6010 ft | 124 kts | 273° |
| 2026-04-24 01:15 | 43.11505 | -78.24208 | 6010 ft | 123 kts | 273° |
| 2026-04-24 01:15 | 43.11496 | -78.25381 | 6010 ft | 123 kts | 273° |
| 2026-04-24 01:15 | 43.11487 | -78.26551 | 6010 ft | 123 kts | 273° |
| 2026-04-24 01:16 | 43.11478 | -78.27719 | 6011 ft | 123 kts | 273° |
| 2026-04-24 01:16 | 43.11469 | -78.28887 | 6011 ft | 122 kts | 273° |
| 2026-04-24 01:16 | 43.11459 | -78.30051 | 6011 ft | 122 kts | 273° |
| 2026-04-24 01:16 | 43.11450 | -78.31200 | 6011 ft | 122 kts | 273° |
| 2026-04-24 01:17 | 43.11440 | -78.32365 | 6008 ft | 123 kts | 273° |
| 2026-04-24 01:17 | 43.11430 | -78.33532 | 6008 ft | 123 kts | 273° |
| 2026-04-24 01:17 | 43.11420 | -78.34699 | 6008 ft | 123 kts | 273° |
| 2026-04-24 01:17 | 43.11411 | -78.35865 | 6008 ft | 123 kts | 273° |
| 2026-04-24 01:18 | 43.11401 | -78.37030 | 6008 ft | 122 kts | 273° |
| 2026-04-24 01:18 | 43.11391 | -78.38195 | 6007 ft | 122 kts | 273° |
| 2026-04-24 01:18 | 43.11380 | -78.39359 | 6008 ft | 122 kts | 273° |
| 2026-04-24 01:18 | 43.11370 | -78.40523 | 6008 ft | 122 kts | 273° |
| 2026-04-24 01:19 | 43.11360 | -78.41686 | 6010 ft | 122 kts | 273° |
| 2026-04-24 01:19 | 43.11349 | -78.42836 | 6010 ft | 122 kts | 273° |
| 2026-04-24 01:19 | 43.11338 | -78.43999 | 6010 ft | 122 kts | 273° |
| 2026-04-24 01:19 | 43.11327 | -78.45164 | 6009 ft | 122 kts | 273° |
| 2026-04-24 01:20 | 43.11316 | -78.46329 | 6010 ft | 122 kts | 273° |
| 2026-04-24 01:20 | 43.11305 | -78.47495 | 6009 ft | 123 kts | 273° |
| 2026-04-24 01:20 | 43.11293 | -78.48663 | 6009 ft | 123 kts | 272° |
| 2026-04-24 01:20 | 43.11282 | -78.49830 | 6005 ft | 123 kts | 273° |
| 2026-04-24 01:21 | 43.11270 | -78.50994 | 6006 ft | 122 kts | 273° |
| 2026-04-24 01:21 | 43.11259 | -78.52159 | 6006 ft | 122 kts | 273° |
| 2026-04-24 01:21 | 43.11247 | -78.53324 | 6006 ft | 122 kts | 273° |
| 2026-04-24 01:21 | 43.11235 | -78.54490 | 6006 ft | 123 kts | 273° |
| 2026-04-24 01:22 | 43.11224 | -78.55641 | 6003 ft | 123 kts | 272° |
| 2026-04-24 01:22 | 43.11211 | -78.56808 | 6003 ft | 123 kts | 272° |
| 2026-04-24 01:22 | 43.11199 | -78.57976 | 6003 ft | 123 kts | 272° |
| 2026-04-24 01:22 | 43.11187 | -78.59141 | 6003 ft | 122 kts | 273° |
| 2026-04-24 01:23 | 43.11174 | -78.60306 | 5998 ft | 122 kts | 273° |
| 2026-04-24 01:23 | 43.11162 | -78.61473 | 6002 ft | 123 kts | 273° |
| 2026-04-24 01:23 | 43.11149 | -78.62642 | 6002 ft | 123 kts | 272° |
| 2026-04-24 01:23 | 43.11136 | -78.63813 | 6001 ft | 123 kts | 272° |
| 2026-04-24 01:24 | 43.11123 | -78.64985 | 6004 ft | 123 kts | 272° |
| 2026-04-24 01:24 | 43.11110 | -78.66138 | 6004 ft | 123 kts | 272° |
| 2026-04-24 01:24 | 43.11097 | -78.67307 | 6004 ft | 123 kts | 273° |
| 2026-04-24 01:24 | 43.11084 | -78.68473 | 6003 ft | 123 kts | 272° |
| 2026-04-24 01:25 | 43.11077 | -78.69643 | 6000 ft | 123 kts | 273° |
| 2026-04-24 01:25 | 43.11062 | -78.70809 | 6000 ft | 123 kts | 272° |
| 2026-04-24 01:25 | 43.11045 | -78.71976 | 6000 ft | 123 kts | 272° |
| 2026-04-24 01:25 | 43.11030 | -78.73143 | 5999 ft | 123 kts | 272° |
| 2026-04-24 01:26 | 43.11016 | -78.74308 | 6002 ft | 122 kts | 272° |
| 2026-04-24 01:26 | 43.11002 | -78.75465 | 5995 ft | 119 kts | 273° |
| 2026-04-24 01:26 | 43.10990 | -78.76553 | 5996 ft | 110 kts | 273° |
| 2026-04-24 01:26 | 43.10978 | -78.77545 | 5996 ft | 102 kts | 273° |
| 2026-04-24 01:27 | 43.10965 | -78.78487 | 5995 ft | 97 kts | 273° |
| 2026-04-24 01:27 | 43.10958 | -78.79394 | 5991 ft | 94 kts | 279° |
| 2026-04-24 01:27 | 43.11286 | -78.80130 | 5875 ft | 96 kts | 324° |
| 2026-04-24 01:27 | 43.11964 | -78.80255 | 5751 ft | 106 kts | 5° |
| 2026-04-24 01:28 | 43.12681 | -78.79985 | 5626 ft | 107 kts | 9° |
| 2026-04-24 01:28 | 43.13395 | -78.79703 | 5501 ft | 107 kts | 9° |
| 2026-04-24 01:28 | 43.14111 | -78.79427 | 5376 ft | 107 kts | 9° |
| 2026-04-24 01:28 | 43.14826 | -78.79158 | 5252 ft | 107 kts | 9° |
| 2026-04-24 01:29 | 43.15543 | -78.78895 | 5128 ft | 107 kts | 9° |
| 2026-04-24 01:29 | 43.16264 | -78.78641 | 5004 ft | 107 kts | 9° |
| 2026-04-24 01:29 | 43.16977 | -78.78397 | 4884 ft | 107 kts | 9° |
| 2026-04-24 01:29 | 43.17704 | -78.78158 | 4760 ft | 108 kts | 9° |
| 2026-04-24 01:30 | 43.18435 | -78.77926 | 4632 ft | 108 kts | 9° |
| 2026-04-24 01:30 | 43.19165 | -78.77700 | 4504 ft | 108 kts | 9° |
| 2026-04-24 01:30 | 43.19899 | -78.77477 | 4345 ft | 110 kts | 10° |
| 2026-04-24 01:30 | 43.20652 | -78.77255 | 4140 ft | 111 kts | 10° |
| 2026-04-24 01:31 | 43.21414 | -78.77040 | 3946 ft | 112 kts | 10° |
| 2026-04-24 01:31 | 43.22068 | -78.76472 | 3743 ft | 116 kts | 53° |
| 2026-04-24 01:31 | 43.22239 | -78.75402 | 3551 ft | 119 kts | 95° |
| 2026-04-24 01:31 | 43.22099 | -78.74286 | 3364 ft | 119 kts | 99° |
| 2026-04-24 01:32 | 43.21939 | -78.73178 | 3159 ft | 118 kts | 99° |
| 2026-04-24 01:32 | 43.21729 | -78.72100 | 3008 ft | 113 kts | 108° |
| 2026-04-24 01:32 | 43.21547 | -78.71135 | 3010 ft | 104 kts | 100° |
| 2026-04-24 01:32 | 43.21358 | -78.70154 | 3006 ft | 110 kts | 111° |
| 2026-04-24 01:33 | 43.20846 | -78.69408 | 3108 ft | 108 kts | 154° |
| 2026-04-24 01:33 | 43.20137 | -78.69336 | 3251 ft | 101 kts | 199° |
| 2026-04-24 01:33 | 43.19568 | -78.69866 | 3309 ft | 104 kts | 233° |
| 2026-04-24 01:33 | 43.19117 | -78.70702 | 3312 ft | 114 kts | 236° |
| 2026-04-24 01:34 | 43.18631 | -78.71612 | 3315 ft | 122 kts | 236° |
| 2026-04-24 01:34 | 43.18107 | -78.72571 | 3312 ft | 129 kts | 235° |
| 2026-04-24 01:34 | 43.17555 | -78.73567 | 3312 ft | 133 kts | 235° |
| 2026-04-24 01:34 | 43.16990 | -78.74580 | 3309 ft | 135 kts | 234° |
| 2026-04-24 01:35 | 43.16425 | -78.75590 | 3301 ft | 136 kts | 234° |
| 2026-04-24 01:35 | 43.15847 | -78.76622 | 3303 ft | 137 kts | 234° |
| 2026-04-24 01:35 | 43.15264 | -78.77662 | 3303 ft | 138 kts | 234° |
| 2026-04-24 01:35 | 43.14678 | -78.78706 | 3301 ft | 138 kts | 234° |
| 2026-04-24 01:36 | 43.14093 | -78.79748 | 3295 ft | 138 kts | 234° |
| 2026-04-24 01:36 | 43.13508 | -78.80789 | 3296 ft | 138 kts | 234° |
| 2026-04-24 01:36 | 43.12925 | -78.81828 | 3295 ft | 137 kts | 234° |
| 2026-04-24 01:36 | 43.12342 | -78.82866 | 3296 ft | 138 kts | 234° |
| 2026-04-24 01:37 | 43.11756 | -78.83908 | 3299 ft | 138 kts | 234° |
| 2026-04-24 01:37 | 43.11177 | -78.84938 | 3300 ft | 138 kts | 234° |
| 2026-04-24 01:37 | 43.10591 | -78.85980 | 3297 ft | 138 kts | 234° |
| 2026-04-24 01:37 | 43.10007 | -78.87018 | 3299 ft | 138 kts | 234° |
| 2026-04-24 01:38 | 43.09422 | -78.88057 | 3299 ft | 138 kts | 234° |
| 2026-04-24 01:38 | 43.08837 | -78.89096 | 3301 ft | 138 kts | 234° |
| 2026-04-24 01:38 | 43.08251 | -78.90137 | 3295 ft | 138 kts | 234° |
| 2026-04-24 01:38 | 43.07866 | -78.90821 | 3299 ft | 137 kts | 234° |
| 2026-04-24 01:39 | 43.07286 | -78.91849 | 3295 ft | 136 kts | 234° |
| 2026-04-24 01:39 | 43.06707 | -78.92876 | 3295 ft | 136 kts | 235° |
| 2026-04-24 01:39 | 43.06127 | -78.93906 | 3296 ft | 137 kts | 233° |
| 2026-04-24 01:39 | 43.05544 | -78.94938 | 3295 ft | 137 kts | 233° |
| 2026-04-24 01:40 | 43.04962 | -78.95969 | 3299 ft | 137 kts | 233° |
| 2026-04-24 01:40 | 43.04194 | -78.97330 | 3300 ft | 136 kts | 234° |
| 2026-04-24 01:40 | 43.03615 | -78.98354 | 3298 ft | 136 kts | 235° |
| 2026-04-24 01:40 | 43.03225 | -78.99045 | 3298 ft | 136 kts | 234° |
| 2026-04-24 01:41 | 43.02643 | -79.00075 | 3298 ft | 137 kts | 235° |
| 2026-04-24 01:41 | 43.02080 | -79.01075 | 3302 ft | 122 kts | 234° |
| 2026-04-24 01:41 | 43.01597 | -79.01931 | 3303 ft | 111 kts | 236° |
| 2026-04-24 01:41 | 43.01132 | -79.02749 | 3301 ft | 107 kts | 235° |
| 2026-04-24 01:42 | 43.00673 | -79.03557 | 3304 ft | 108 kts | 234° |
| 2026-04-24 01:42 | 43.00209 | -79.04374 | 3304 ft | 110 kts | 235° |
| 2026-04-24 01:42 | 42.99739 | -79.05204 | 3305 ft | 111 kts | 234° |
| 2026-04-24 01:42 | 42.99265 | -79.06042 | 3303 ft | 112 kts | 233° |
| 2026-04-24 01:43 | 42.98789 | -79.06882 | 3303 ft | 112 kts | 234° |
| 2026-04-24 01:43 | 42.98316 | -79.07718 | 3304 ft | 111 kts | 233° |
| 2026-04-24 01:43 | 42.97844 | -79.08552 | 3303 ft | 111 kts | 234° |
| 2026-04-24 01:43 | 42.97380 | -79.09369 | 3303 ft | 110 kts | 234° |
| 2026-04-24 01:44 | 42.96908 | -79.10199 | 3307 ft | 111 kts | 235° |
| 2026-04-24 01:44 | 42.96432 | -79.11039 | 3303 ft | 112 kts | 235° |
| 2026-04-24 01:44 | 42.95954 | -79.11883 | 3304 ft | 113 kts | 234° |
| 2026-04-24 01:44 | 42.95476 | -79.12728 | 3308 ft | 112 kts | 234° |
| 2026-04-24 01:45 | 42.95004 | -79.13568 | 3293 ft | 113 kts | 225° |
| 2026-04-24 01:45 | 42.94366 | -79.14212 | 3296 ft | 112 kts | 217° |
| 2026-04-24 01:45 | 42.93720 | -79.14805 | 3279 ft | 113 kts | 214° |
| 2026-04-24 01:45 | 42.93075 | -79.15382 | 3292 ft | 112 kts | 215° |
| 2026-04-24 01:46 | 42.92436 | -79.16007 | 3271 ft | 113 kts | 217° |
| 2026-04-24 01:46 | 42.91795 | -79.16574 | 3302 ft | 110 kts | 201° |
| 2026-04-24 01:46 | 42.91024 | -79.16580 | 3282 ft | 111 kts | 162° |
| 2026-04-24 01:46 | 42.90468 | -79.15911 | 3319 ft | 108 kts | 115° |
| 2026-04-24 01:47 | 42.90459 | -79.14923 | 3316 ft | 109 kts | 65° |
| 2026-04-24 01:47 | 42.91000 | -79.14196 | 3320 ft | 110 kts | 20° |
| 2026-04-24 01:47 | 42.91730 | -79.14151 | 3355 ft | 109 kts | 353° |
| 2026-04-24 01:47 | 42.92475 | -79.14265 | 3342 ft | 108 kts | 353° |
| 2026-04-24 01:48 | 42.93220 | -79.14369 | 3311 ft | 107 kts | 355° |
| 2026-04-24 01:48 | 42.93902 | -79.14087 | 3284 ft | 106 kts | 33° |
| 2026-04-24 01:48 | 42.94526 | -79.13546 | 3260 ft | 108 kts | 30° |
| 2026-04-24 01:48 | 42.95145 | -79.12988 | 3283 ft | 107 kts | 34° |
| 2026-04-24 01:49 | 42.95748 | -79.12364 | 3277 ft | 110 kts | 36° |
| 2026-04-24 01:49 | 42.96346 | -79.11728 | 3282 ft | 111 kts | 34° |
| 2026-04-24 01:49 | 42.96978 | -79.11145 | 3294 ft | 104 kts | 34° |
| 2026-04-24 01:49 | 42.97592 | -79.10558 | 3128 ft | 107 kts | 33° |
| 2026-04-24 01:50 | 42.98195 | -79.09970 | 2959 ft | 108 kts | 36° |
| 2026-04-24 01:50 | 42.98806 | -79.09355 | 2831 ft | 108 kts | 37° |
| 2026-04-24 01:50 | 42.99416 | -79.08758 | 2654 ft | 107 kts | 36° |
| 2026-04-24 01:50 | 43.00011 | -79.08179 | 2494 ft | 103 kts | 36° |
| 2026-04-24 01:51 | 43.00593 | -79.07606 | 2350 ft | 103 kts | 39° |
| 2026-04-24 01:51 | 43.01173 | -79.07017 | 2306 ft | 105 kts | 37° |
| 2026-04-24 01:51 | 43.01759 | -79.06436 | 2303 ft | 104 kts | 36° |
| 2026-04-24 01:51 | 43.02329 | -79.05887 | 2347 ft | 94 kts | 36° |
| 2026-04-24 01:52 | 43.02864 | -79.05409 | 2328 ft | 89 kts | 34° |
| 2026-04-24 01:52 | 43.03348 | -79.04948 | 2322 ft | 82 kts | 36° |
| 2026-04-24 01:52 | 43.03789 | -79.04517 | 2285 ft | 75 kts | 35° |
| 2026-04-24 01:52 | 43.04216 | -79.04117 | 2269 ft | 75 kts | 36° |
| 2026-04-24 01:53 | 43.04645 | -79.03670 | 2270 ft | 80 kts | 38° |
| 2026-04-24 01:53 | 43.04989 | -79.03092 | 2277 ft | 80 kts | 59° |
| 2026-04-24 01:53 | 43.05306 | -79.02493 | 2191 ft | 79 kts | 50° |
| 2026-04-24 01:53 | 43.05666 | -79.01929 | 2101 ft | 80 kts | 50° |
| 2026-04-24 01:54 | 43.06027 | -79.01366 | 2007 ft | 77 kts | 50° |
| 2026-04-24 01:54 | 43.06363 | -79.00807 | 1906 ft | 76 kts | 53° |
| 2026-04-24 01:54 | 43.06682 | -79.00229 | 1784 ft | 75 kts | 47° |
| 2026-04-24 01:54 | 43.07034 | -78.99690 | 1635 ft | 77 kts | 49° |
| 2026-04-24 01:55 | 43.07383 | -78.99148 | 1526 ft | 76 kts | 51° |
| 2026-04-24 01:55 | 43.07720 | -78.98584 | 1393 ft | 77 kts | 52° |
| 2026-04-24 01:55 | 43.08049 | -78.98009 | 1294 ft | 76 kts | 49° |
| 2026-04-24 01:55 | 43.08388 | -78.97464 | 1179 ft | 75 kts | 46° |
| 2026-04-24 01:56 | 43.08724 | -78.96930 | 1054 ft | 75 kts | 49° |
| 2026-04-24 01:56 | 43.09079 | -78.96386 | 939 ft | 76 kts | 47° |
| 2026-04-24 01:56 | 43.09386 | -78.95857 | 886 ft | 69 kts | 50° |
| 2026-04-24 01:56 | 43.09696 | -78.95357 | 782 ft | 68 kts | 50° |
| 2026-04-24 01:57 | 43.09994 | -78.94868 | 687 ft | 66 kts | 47° |
| 2026-04-24 01:57 | 43.10281 | -78.94397 | 604 ft | 60 kts | 50° |
| 2026-04-24 01:57 | 43.10498 | -78.94041 | 595 ft | 39 kts | 50° |
| 2026-04-24 01:57 | 43.10646 | -78.93799 | 592 ft | 27 kts | 50° |
| 2026-04-24 01:58 | 43.10744 | -78.93635 | 592 ft | 7 kts | 72° |
| 2026-04-24 01:58 | 43.10719 | -78.93576 | 592 ft | 12 kts | 140° |
| 2026-04-24 01:58 | 43.10684 | -78.93537 | 591 ft | 0 kts | 142° |
| 2026-04-24 01:59 | 43.10671 | -78.93529 | 590 ft | 5 kts | 182° |
| 2026-04-24 01:59 | 43.10629 | -78.93598 | 589 ft | 16 kts | 229° |
| 2026-04-24 01:59 | 43.10540 | -78.93744 | 591 ft | 24 kts | 231° |
| 2026-04-24 02:00 | 43.10414 | -78.93952 | 594 ft | 32 kts | 228° |
| 2026-04-24 02:00 | 43.10266 | -78.94191 | 595 ft | 31 kts | 229° |
| 2026-04-24 02:00 | 43.10135 | -78.94404 | 592 ft | 21 kts | 229° |
| 2026-04-24 02:00 | 43.10075 | -78.94346 | 590 ft | 15 kts | 92° |
| 2026-04-24 02:01 | 43.10059 | -78.94325 | 589 ft | 0 kts | 179° |